Time;durP1;ratioP1;P1;durP2;ratioP2;P2;SDS_P1;SDS_P2;PMS_P1;PMS_P2;Temp;Humidity;BMP_temperature;BMP_pressure;BME280_temperature;BME280_humidity;BME280_pressure;Samples;Min_cycle;Max_cycle;Signal;HPM_P1;HPM_P2
2021/10/28 00:13:44;;;;;;;2.88;0.98;;;21.20;51.60;;;;;;4898504;29;20097;-60
2021/10/28 00:16:15;;;;;;;2.70;0.93;;;21.20;51.60;;;;;;4913030;29;20032;-61
2021/10/28 00:18:43;;;;;;;2.53;1.00;;;21.20;51.60;;;;;;4898234;29;20035;-62
2021/10/28 00:21:10;;;;;;;3.00;0.98;;;21.20;51.60;;;;;;4898406;29;20037;-61
2021/10/28 00:23:44;;;;;;;2.47;1.00;;;21.20;51.60;;;;;;4898102;29;20064;-61
2021/10/28 00:26:10;;;;;;;2.78;1.02;;;21.20;51.60;;;;;;4897964;29;20454;-60
2021/10/28 00:28:36;;;;;;;2.95;1.00;;;21.20;51.50;;;;;;4898178;29;20119;-61
2021/10/28 00:31:04;;;;;;;2.55;1.08;;;21.20;51.60;;;;;;4898057;29;20032;-61
2021/10/28 00:33:31;;;;;;;4.32;1.83;;;21.20;51.60;;;;;;4897970;29;20396;-61
2021/10/28 00:36:01;;;;;;;2.05;0.80;;;21.20;51.60;;;;;;4897922;29;20060;-61
2021/10/28 00:38:28;;;;;;;2.42;0.88;;;21.20;51.50;;;;;;4897831;29;20044;-61
2021/10/28 00:40:54;;;;;;;1.85;0.90;;;21.10;51.50;;;;;;4898073;29;20028;-61
2021/10/28 00:43:19;;;;;;;2.35;0.77;;;21.20;51.60;;;;;;4898008;29;20114;-61
2021/10/28 00:45:49;;;;;;;2.58;1.30;;;21.20;51.50;;;;;;4897874;29;20039;-61
2021/10/28 00:48:15;;;;;;;1.60;0.80;;;21.10;51.50;;;;;;4897897;29;20025;-61
2021/10/28 00:50:41;;;;;;;2.58;1.02;;;21.20;51.50;;;;;;4897782;29;20035;-61
2021/10/28 00:53:06;;;;;;;2.47;1.00;;;21.10;51.50;;;;;;4898879;29;20037;-60
2021/10/28 00:55:34;;;;;;;1.80;0.88;;;21.20;51.50;;;;;;4901708;29;20029;-61
2021/10/28 00:57:59;;;;;;;2.38;1.00;;;21.10;51.50;;;;;;4901683;29;20035;-61
2021/10/28 01:00:25;;;;;;;2.17;1.10;;;21.10;51.50;;;;;;4901567;29;20421;-61
2021/10/28 01:02:51;;;;;;;2.95;1.27;;;21.10;51.50;;;;;;4901562;29;20037;-61
2021/10/28 01:05:17;;;;;;;2.53;1.20;;;21.20;51.50;;;;;;4901365;29;20028;-61
2021/10/28 01:07:43;;;;;;;3.17;1.08;;;21.20;51.50;;;;;;4901647;29;20607;-61
2021/10/28 01:10:09;;;;;;;3.00;1.38;;;21.10;51.40;;;;;;4901441;29;20465;-61
2021/10/28 01:12:34;;;;;;;2.63;0.93;;;21.10;51.40;;;;;;4901336;29;20036;-61
2021/10/28 01:15:01;;;;;;;2.50;1.00;;;21.10;51.40;;;;;;4901458;29;20037;-61
2021/10/28 01:17:31;;;;;;;2.25;0.80;;;21.10;51.40;;;;;;4901346;29;20548;-61
2021/10/28 01:19:56;;;;;;;3.20;1.30;;;21.10;51.40;;;;;;4901544;29;20033;-61
2021/10/28 01:22:22;;;;;;;2.40;0.85;;;21.10;51.40;;;;;;4901143;29;20415;-61
2021/10/28 01:24:47;;;;;;;2.33;0.95;;;21.10;51.40;;;;;;4901161;29;20039;-61
2021/10/28 01:27:13;;;;;;;1.65;0.82;;;21.10;51.40;;;;;;4901132;29;20036;-61
2021/10/28 01:29:41;;;;;;;1.95;1.05;;;21.10;51.40;;;;;;4901099;29;20032;-61
2021/10/28 01:32:07;;;;;;;3.03;1.20;;;21.10;51.40;;;;;;4901062;29;20058;-61
2021/10/28 01:34:33;;;;;;;1.92;0.95;;;21.10;51.40;;;;;;4900988;29;20075;-61
2021/10/28 01:36:59;;;;;;;2.22;0.98;;;21.10;51.30;;;;;;4900837;29;20060;-61
2021/10/28 01:39:25;;;;;;;1.33;0.77;;;21.10;51.40;;;;;;4901058;29;20029;-61
2021/10/28 01:41:55;;;;;;;6.60;1.10;;;21.10;51.40;;;;;;4900903;29;20071;-61
2021/10/28 01:44:21;;;;;;;2.15;1.00;;;21.10;51.30;;;;;;4900827;29;20492;-61
2021/10/28 01:46:47;;;;;;;2.92;1.20;;;21.10;51.30;;;;;;4900629;29;20508;-61
2021/10/28 01:49:28;;;;;;;3.50;0.98;;;21.10;51.30;;;;;;4900844;29;20061;-61
2021/10/28 01:51:55;;;;;;;3.60;1.10;;;21.10;51.30;;;;;;4900674;29;20444;-61
2021/10/28 01:54:25;;;;;;;1.98;0.98;;;21.10;51.30;;;;;;4900632;29;20033;-61
2021/10/28 01:56:51;;;;;;;1.25;0.52;;;21.10;51.30;;;;;;4900539;29;20029;-61
2021/10/28 01:59:17;;;;;;;1.35;0.68;;;21.10;51.20;;;;;;4899484;29;20033;-61
2021/10/28 02:01:43;;;;;;;3.33;1.10;;;21.10;51.20;;;;;;4900563;29;20031;-61
2021/10/28 02:04:09;;;;;;;3.17;1.27;;;21.10;51.20;;;;;;4899931;29;20211;-60
2021/10/28 02:06:36;;;;;;;2.28;0.85;;;21.10;51.20;;;;;;4900669;29;20081;-61
2021/10/28 02:09:03;;;;;;;2.03;0.88;;;21.00;51.20;;;;;;4900516;29;20025;-61
2021/10/28 02:11:29;;;;;;;2.63;1.02;;;21.10;51.20;;;;;;4900441;29;20067;-61
2021/10/28 02:13:58;;;;;;;2.90;1.13;;;21.00;51.20;;;;;;4900330;29;20102;-61
2021/10/28 02:16:34;;;;;;;2.45;0.90;;;21.10;51.20;;;;;;4914787;29;20088;-61
2021/10/28 02:19:02;;;;;;;2.28;1.00;;;21.10;51.20;;;;;;4900276;29;20032;-61
2021/10/28 02:21:28;;;;;;;3.53;1.40;;;21.00;51.20;;;;;;4900259;29;20039;-61
2021/10/28 02:23:56;;;;;;;3.33;0.90;;;21.00;51.20;;;;;;4900432;29;20025;-61
2021/10/28 02:26:22;;;;;;;1.73;0.93;;;21.00;51.20;;;;;;4899922;29;20036;-61
2021/10/28 02:28:48;;;;;;;3.03;1.00;;;21.00;51.20;;;;;;4900327;29;20354;-61
2021/10/28 02:31:14;;;;;;;3.20;1.05;;;21.00;51.20;;;;;;4898808;29;20440;-61
2021/10/28 02:33:40;;;;;;;2.90;1.00;;;21.00;51.20;;;;;;4900096;29;20092;-61
2021/10/28 02:36:05;;;;;;;3.08;0.80;;;21.00;51.10;;;;;;4899907;29;20033;-61
2021/10/28 02:38:31;;;;;;;3.63;1.35;;;21.00;51.10;;;;;;4899693;29;20060;-61
2021/10/28 02:40:57;;;;;;;1.45;0.90;;;21.00;51.10;;;;;;4900011;29;20036;-61
2021/10/28 02:43:22;;;;;;;2.55;0.80;;;21.00;51.00;;;;;;4899952;29;20514;-62
2021/10/28 02:45:48;;;;;;;2.58;0.98;;;21.00;51.10;;;;;;4899867;29;20096;-61
2021/10/28 02:48:13;;;;;;;2.40;0.90;;;21.00;51.10;;;;;;4899895;29;20055;-61
2021/10/28 02:50:40;;;;;;;1.35;0.80;;;21.00;51.10;;;;;;4899944;29;20067;-62
2021/10/28 02:53:05;;;;;;;2.38;0.90;;;21.00;51.10;;;;;;4899742;29;20029;-61
2021/10/28 02:55:31;;;;;;;2.55;1.13;;;21.00;51.10;;;;;;4899876;29;20033;-60
2021/10/28 02:57:56;;;;;;;2.85;1.00;;;21.00;51.10;;;;;;4899668;29;20489;-61
2021/10/28 03:00:22;;;;;;;2.40;1.00;;;21.00;51.00;;;;;;4899487;29;20111;-61
2021/10/28 03:02:47;;;;;;;2.38;1.00;;;21.00;51.10;;;;;;4899460;29;20035;-61
2021/10/28 03:05:13;;;;;;;2.53;0.98;;;21.00;51.10;;;;;;4899623;29;20033;-61
2021/10/28 03:07:39;;;;;;;1.90;0.90;;;21.00;51.00;;;;;;4899699;29;20380;-61
2021/10/28 03:10:07;;;;;;;2.85;1.10;;;21.00;51.00;;;;;;4899845;29;20039;-61
2021/10/28 03:12:35;;;;;;;2.17;0.93;;;21.00;50.90;;;;;;4899545;29;20103;-61
2021/10/28 03:15:03;;;;;;;1.80;0.80;;;21.00;51.00;;;;;;4899020;29;20036;-61
2021/10/28 03:25:37;;;;;;;1.25;0.80;;;21.00;50.90;;;;;;4899303;29;20487;-61
2021/10/28 03:28:17;;;;;;;1.67;0.80;;;21.00;50.90;;;;;;4899010;29;20072;-61
2021/10/28 03:30:43;;;;;;;1.92;0.82;;;20.90;50.90;;;;;;4897717;29;20499;-62
2021/10/28 03:33:12;;;;;;;1.95;0.95;;;20.90;50.80;;;;;;4898897;29;20404;-60
2021/10/28 03:35:38;;;;;;;2.03;0.90;;;21.00;50.90;;;;;;4899010;29;20032;-61
2021/10/28 03:38:22;;;;;;;1.63;0.90;;;21.00;50.80;;;;;;4897429;29;20071;-61
2021/10/28 03:41:23;;;;;;;1.33;0.80;;;21.00;50.80;;;;;;4898921;29;20051;-62
2021/10/28 03:44:02;;;;;;;2.70;1.25;;;20.90;50.80;;;;;;4898608;29;20043;-61
2021/10/28 03:49:35;;;;;;;2.30;0.93;;;21.00;50.90;;;;;;4898763;29;20032;-61
2021/10/28 04:00:44;;;;;;;3.22;1.00;;;20.90;50.80;;;;;;4898445;29;20115;-61
2021/10/28 04:06:25;;;;;;;2.90;1.05;;;20.90;50.70;;;;;;4876769;29;20112;-62
2021/10/28 04:30:18;;;;;;;2.13;0.98;;;21.00;50.50;;;;;;4898252;29;20029;-60
2021/10/28 04:32:44;;;;;;;1.67;0.85;;;21.00;50.50;;;;;;4898224;29;20028;-61
2021/10/28 04:35:10;;;;;;;2.30;0.90;;;21.00;50.40;;;;;;4897850;29;20124;-61
2021/10/28 04:37:39;;;;;;;2.00;0.93;;;21.00;50.40;;;;;;4897972;29;20473;-61
2021/10/28 04:40:06;;;;;;;2.38;1.00;;;21.00;50.30;;;;;;4896769;29;20028;-61
2021/10/28 04:42:32;;;;;;;2.50;1.00;;;21.00;50.40;;;;;;4896634;29;20025;-61
2021/10/28 04:44:58;;;;;;;4.47;0.90;;;21.00;50.30;;;;;;4897830;29;20041;-61
2021/10/28 04:47:23;;;;;;;2.38;0.93;;;21.10;50.30;;;;;;4897711;29;20039;-61
2021/10/28 04:49:49;;;;;;;1.92;0.95;;;21.10;50.30;;;;;;4897899;29;20385;-62
2021/10/28 04:52:14;;;;;;;2.75;1.10;;;21.10;50.20;;;;;;4898040;29;20036;-61
2021/10/28 04:54:40;;;;;;;1.40;0.70;;;21.10;50.20;;;;;;4897779;29;20056;-61
2021/10/28 04:57:06;;;;;;;2.97;1.08;;;21.10;50.20;;;;;;4897758;29;20035;-61
2021/10/28 04:59:32;;;;;;;2.50;1.08;;;21.10;50.20;;;;;;4897806;29;20092;-62
2021/10/28 05:01:58;;;;;;;3.30;1.25;;;21.10;50.20;;;;;;4898075;29;20021;-61
2021/10/28 05:04:24;;;;;;;2.08;0.93;;;21.10;50.10;;;;;;4897693;29;20464;-62
2021/10/28 05:06:50;;;;;;;2.25;0.90;;;21.10;50.10;;;;;;4897717;29;20120;-61
2021/10/28 05:09:24;;;;;;;2.42;1.08;;;21.10;50.10;;;;;;4897769;29;20433;-60
2021/10/28 05:11:49;;;;;;;2.47;1.08;;;21.10;50.20;;;;;;4898139;29;20095;-60
2021/10/28 05:14:15;;;;;;;2.22;1.00;;;21.20;50.10;;;;;;4897852;29;20516;-61
2021/10/28 05:16:41;;;;;;;2.50;1.00;;;21.10;50.00;;;;;;4897670;29;20029;-62
2021/10/28 05:19:06;;;;;;;2.90;1.00;;;21.10;50.10;;;;;;4897562;29;20024;-61
2021/10/28 05:21:32;;;;;;;2.47;1.00;;;21.10;50.10;;;;;;4897485;29;20476;-61
2021/10/28 05:23:57;;;;;;;3.25;1.00;;;21.10;50.00;;;;;;4911926;29;20119;-61
2021/10/28 05:26:23;;;;;;;2.05;0.80;;;21.20;50.00;;;;;;4897632;29;20044;-61
2021/10/28 05:28:48;;;;;;;3.00;1.30;;;21.20;50.00;;;;;;4897487;29;20020;-60
2021/10/28 05:31:14;;;;;;;2.40;1.02;;;21.10;50.00;;;;;;4897594;29;20039;-61
2021/10/28 05:33:40;;;;;;;1.63;0.73;;;21.10;49.90;;;;;;4897709;29;20035;-61
2021/10/28 05:36:06;;;;;;;2.45;1.15;;;21.10;50.00;;;;;;4897389;29;20526;-61
2021/10/28 05:38:32;;;;;;;2.05;0.90;;;21.20;50.00;;;;;;4897508;29;20048;-61
2021/10/28 05:40:57;;;;;;;3.10;1.17;;;21.20;50.00;;;;;;4900925;29;20039;-60
2021/10/28 05:43:23;;;;;;;3.90;1.08;;;21.10;49.80;;;;;;4900790;29;20029;-62
2021/10/28 05:45:49;;;;;;;1.83;0.88;;;21.20;49.90;;;;;;4900671;29;20048;-61
2021/10/28 05:48:15;;;;;;;2.30;1.20;;;21.20;50.00;;;;;;4900831;29;20024;-61
2021/10/28 05:50:42;;;;;;;2.30;0.90;;;21.20;50.00;;;;;;4900999;29;20036;-61
2021/10/28 05:53:09;;;;;;;1.67;0.73;;;21.20;49.90;;;;;;4900872;29;20036;-61
2021/10/28 05:55:35;;;;;;;1.38;0.70;;;21.20;49.90;;;;;;4900832;29;20025;-61
2021/10/28 05:58:01;;;;;;;2.03;0.95;;;21.20;49.90;;;;;;4900543;29;20080;-61
2021/10/28 06:00:26;;;;;;;2.70;0.98;;;21.20;49.90;;;;;;4900582;29;20120;-62
2021/10/28 06:02:53;;;;;;;2.67;1.10;;;21.20;49.90;;;;;;4900536;29;20044;-62
2021/10/28 06:05:19;;;;;;;3.25;0.93;;;21.20;49.80;;;;;;4900434;29;20111;-61
2021/10/28 06:07:44;;;;;;;1.98;0.90;;;21.20;49.80;;;;;;4900379;29;20101;-61
2021/10/28 06:10:12;;;;;;;2.33;0.95;;;21.20;49.80;;;;;;4900383;29;20028;-61
2021/10/28 06:12:42;;;;;;;2.38;1.15;;;21.20;49.80;;;;;;4900380;29;20033;-61
2021/10/28 06:15:10;;;;;;;2.72;1.15;;;21.20;49.80;;;;;;4900392;29;20029;-61
2021/10/28 06:17:44;;;;;;;2.65;1.17;;;21.20;49.80;;;;;;4900178;29;20032;-61
2021/10/28 06:20:10;;;;;;;2.58;1.02;;;21.20;49.70;;;;;;4900510;29;20028;-62
2021/10/28 06:22:35;;;;;;;2.22;0.90;;;21.20;49.70;;;;;;4900080;29;20033;-60
2021/10/28 06:25:01;;;;;;;2.55;1.10;;;21.30;49.70;;;;;;4899953;29;20033;-61
2021/10/28 06:27:27;;;;;;;2.17;1.05;;;21.30;49.70;;;;;;4900370;29;20111;-61
2021/10/28 06:29:53;;;;;;;2.85;0.90;;;21.30;49.60;;;;;;4900028;29;20089;-61
2021/10/28 06:32:18;;;;;;;2.50;1.13;;;21.30;49.70;;;;;;4899995;29;20493;-61
2021/10/28 06:34:46;;;;;;;2.45;0.98;;;21.30;49.70;;;;;;4899642;29;20085;-62
2021/10/28 06:37:11;;;;;;;2.38;1.10;;;21.30;49.70;;;;;;4898112;29;20024;-61
2021/10/28 06:39:37;;;;;;;3.15;1.13;;;21.30;49.70;;;;;;4898668;29;20354;-62
2021/10/28 06:42:05;;;;;;;1.88;1.00;;;21.30;49.60;;;;;;4898473;29;20033;-61
2021/10/28 06:44:30;;;;;;;1.63;0.95;;;21.30;49.60;;;;;;4899793;29;20033;-61
2021/10/28 06:46:56;;;;;;;1.92;0.80;;;21.30;49.60;;;;;;4899439;29;20048;-61
2021/10/28 06:49:23;;;;;;;2.63;1.20;;;21.30;49.60;;;;;;4899925;29;20424;-61
2021/10/28 06:51:48;;;;;;;3.15;1.30;;;21.30;49.60;;;;;;4899663;29;20033;-61
2021/10/28 06:54:34;;;;;;;3.53;1.23;;;21.30;49.60;;;;;;4899511;29;20033;-61
2021/10/28 07:05:00;;;;;;;3.33;1.27;;;21.30;49.70;;;;;;4899717;29;20031;-65
2021/10/28 07:07:27;;;;;;;3.63;1.38;;;21.40;49.40;;;;;;4899322;29;20124;-62
2021/10/28 07:10:11;;;;;;;2.42;1.13;;;21.40;49.50;;;;;;4899152;29;20362;-60
2021/10/28 07:12:54;;;;;;;2.30;1.23;;;21.40;49.40;;;;;;4899335;29;20122;-62
2021/10/28 08:19:51;;;;;;;3.25;1.30;;;21.50;49.30;;;;;;4898318;29;20029;-61
2021/10/28 08:22:32;;;;;;;2.17;1.20;;;21.50;49.30;;;;;;4898100;29;20040;-61
2021/10/28 08:30:24;;;;;;;3.08;1.30;;;21.50;49.30;;;;;;4898198;29;20162;-61
2021/10/28 08:32:50;;;;;;;3.47;1.30;;;21.60;49.20;;;;;;4898254;29;20039;-61
2021/10/28 08:35:15;;;;;;;2.17;1.08;;;21.60;49.30;;;;;;4897770;29;20115;-60
2021/10/28 08:37:46;;;;;;;3.58;1.48;;;21.60;49.30;;;;;;4897707;29;20052;-60
2021/10/28 08:40:14;;;;;;;3.08;1.33;;;21.50;49.30;;;;;;4898169;29;20032;-61
2021/10/28 08:42:41;;;;;;;2.75;1.10;;;21.60;49.20;;;;;;4897932;29;20047;-60
2021/10/28 08:45:09;;;;;;;5.15;1.40;;;21.60;49.20;;;;;;4897847;29;20063;-62
2021/10/28 08:47:35;;;;;;;2.83;1.08;;;21.60;49.20;;;;;;4898066;29;20044;-61
2021/10/28 08:50:07;;;;;;;4.57;1.30;;;21.60;49.20;;;;;;4897770;29;20029;-61
2021/10/28 09:26:41;;;;;;;1.77;0.93;;;21.80;49.00;;;;;;4901096;29;20115;-61
2021/10/28 09:31:59;;;;;;;3.05;1.10;;;21.80;49.00;;;;;;4901000;29;20100;-61
2021/10/28 09:34:37;;;;;;;3.30;0.90;;;21.90;48.90;;;;;;4900855;29;20476;-61
2021/10/28 09:45:49;;;;;;;3.70;1.23;;;22.00;48.90;;;;;;4900670;29;20058;-61
2021/10/28 09:51:10;;;;;;;2.15;0.95;;;22.00;48.80;;;;;;4901240;29;20028;-61
2021/10/28 09:59:46;;;;;;;3.13;1.30;;;22.00;48.70;;;;;;4900863;29;20027;-62
2021/10/28 10:02:25;;;;;;;3.15;1.10;;;22.00;48.60;;;;;;4900699;29;20039;-62
2021/10/28 10:04:51;;;;;;;2.90;1.20;;;22.00;48.60;;;;;;4900381;29;20029;-61
2021/10/28 10:07:20;;;;;;;2.55;1.25;;;22.00;48.60;;;;;;4900026;29;20069;-62
2021/10/28 10:09:46;;;;;;;2.05;0.93;;;22.10;48.60;;;;;;4914114;29;20024;-61
2021/10/28 10:12:12;;;;;;;4.05;1.10;;;22.10;48.50;;;;;;4918414;29;20035;-63
2021/10/28 10:14:39;;;;;;;2.03;1.02;;;22.10;48.50;;;;;;4918464;29;20024;-63
2021/10/28 10:17:09;;;;;;;2.88;1.02;;;22.10;48.40;;;;;;4919337;29;20036;-63
2021/10/28 10:19:38;;;;;;;1.80;1.02;;;22.10;48.40;;;;;;4917735;29;20059;-63
2021/10/28 11:23:17;;;;;;;2.50;1.10;;;22.80;47.30;;;;;;4917016;29;20024;-62
2021/10/28 11:26:05;;;;;;;3.78;0.90;;;22.90;47.40;;;;;;4917425;29;20110;-62
2021/10/28 11:29:06;;;;;;;2.90;0.90;;;22.90;47.50;;;;;;4914822;29;20384;-62
2021/10/28 12:16:31;;;;;;;3.33;0.80;;;22.50;48.40;;;;;;4915179;29;20038;-63
2021/10/28 12:24:35;;;;;;;4.93;1.10;;;22.40;48.50;;;;;;4916448;29;20028;-62
2021/10/28 12:44:18;;;;;;;2.47;1.00;;;22.30;48.80;;;;;;4916111;29;20064;-61
2021/10/28 12:52:46;;;;;;;3.75;1.13;;;22.30;48.90;;;;;;4922256;29;20043;-63
2021/10/28 13:50:24;;;;;;;1.40;0.95;;;22.20;49.00;;;;;;4922425;29;20401;-62
2021/10/28 14:23:06;;;;;;;3.67;0.70;;;22.20;49.20;;;;;;4930629;29;20095;-63
2021/10/28 14:26:02;;;;;;;3.33;0.85;;;22.10;49.20;;;;;;4917873;29;20527;-63
2021/10/28 14:36:41;;;;;;;1.52;0.55;;;22.10;49.20;;;;;;4920827;29;20035;-63
2021/10/28 15:28:21;;;;;;;2.20;0.82;;;22.10;49.30;;;;;;4917788;29;20144;-62
2021/10/28 15:31:14;;;;;;;1.48;0.77;;;22.10;49.40;;;;;;4917819;29;20469;-62
2021/10/28 15:36:34;;;;;;;3.30;1.00;;;22.00;49.40;;;;;;4917684;29;20092;-62
2021/10/28 15:39:09;;;;;;;3.08;1.02;;;22.00;49.40;;;;;;4917438;29;20052;-62
2021/10/28 15:50:39;;;;;;;2.55;1.00;;;22.00;49.40;;;;;;4917348;29;20492;-62
2021/10/28 15:55:36;;;;;;;4.35;0.80;;;22.00;49.40;;;;;;4917198;29;20432;-62
2021/10/28 16:22:41;;;;;;;3.57;0.90;;;22.00;49.50;;;;;;4916985;29;19961;-62
2021/10/28 16:25:07;;;;;;;1.85;0.73;;;22.00;49.50;;;;;;4916905;29;20373;-62
2021/10/28 16:27:32;;;;;;;3.20;1.20;;;22.00;49.50;;;;;;4916876;29;20131;-62
2021/10/28 16:29:58;;;;;;;3.35;1.00;;;22.00;49.50;;;;;;4916825;29;20083;-62
2021/10/28 16:32:24;;;;;;;2.03;0.90;;;22.00;49.50;;;;;;4916773;29;20326;-62
2021/10/28 16:34:50;;;;;;;1.95;0.85;;;22.00;49.50;;;;;;4917049;29;20029;-61
2021/10/28 16:37:18;;;;;;;3.83;1.15;;;22.00;49.50;;;;;;4916916;29;20024;-62
2021/10/28 16:39:43;;;;;;;2.78;0.90;;;22.00;49.50;;;;;;4916813;29;20036;-62
2021/10/28 16:42:09;;;;;;;3.22;1.15;;;22.00;49.50;;;;;;4916813;29;20024;-62
2021/10/28 16:44:35;;;;;;;2.25;0.80;;;22.00;49.50;;;;;;4916729;29;20128;-62
2021/10/28 16:47:01;;;;;;;3.15;1.00;;;22.00;49.50;;;;;;4916426;29;20063;-62
2021/10/28 16:49:28;;;;;;;2.15;1.00;;;22.00;49.50;;;;;;4916544;29;20492;-62
2021/10/28 16:51:53;;;;;;;3.92;0.75;;;22.00;49.50;;;;;;4916866;29;20032;-62
2021/10/28 16:54:19;;;;;;;2.35;0.95;;;22.00;49.50;;;;;;4916739;29;20028;-62
2021/10/28 16:56:47;;;;;;;3.53;1.08;;;22.00;49.50;;;;;;4916742;29;20044;-62
2021/10/28 16:59:12;;;;;;;2.58;1.00;;;22.00;49.50;;;;;;4916614;29;20024;-62
2021/10/28 17:01:40;;;;;;;2.70;0.80;;;22.00;49.50;;;;;;4916770;29;20503;-62
2021/10/28 17:04:06;;;;;;;2.42;1.10;;;22.00;49.40;;;;;;4916581;29;20138;-62
2021/10/28 17:06:32;;;;;;;1.95;0.93;;;22.00;49.40;;;;;;4915171;29;20075;-62
2021/10/28 17:08:57;;;;;;;3.22;1.05;;;22.00;49.50;;;;;;4916580;29;20107;-61
2021/10/28 17:11:26;;;;;;;1.67;0.90;;;22.00;49.40;;;;;;4916633;29;20111;-62
2021/10/28 17:13:52;;;;;;;2.63;1.00;;;21.90;49.50;;;;;;4916230;29;20024;-61
2021/10/28 17:16:18;;;;;;;2.65;0.73;;;22.00;49.40;;;;;;4915106;29;20028;-61
2021/10/28 17:18:43;;;;;;;2.47;0.93;;;22.00;49.50;;;;;;4915143;29;20392;-61
2021/10/28 17:21:09;;;;;;;2.75;1.00;;;22.00;49.50;;;;;;4916199;29;20037;-61
2021/10/28 17:23:39;;;;;;;2.85;1.05;;;22.00;49.50;;;;;;4916385;29;20043;-62
2021/10/28 17:26:05;;;;;;;2.35;1.00;;;22.00;49.50;;;;;;4916242;29;20028;-62
2021/10/28 17:28:32;;;;;;;3.45;1.23;;;21.90;49.50;;;;;;4916185;29;20048;-62
2021/10/28 17:30:59;;;;;;;4.65;0.90;;;22.00;49.50;;;;;;4914946;29;20028;-61
2021/10/28 17:33:24;;;;;;;2.17;0.93;;;22.00;49.40;;;;;;4916526;29;20027;-62
2021/10/28 17:35:51;;;;;;;2.25;1.10;;;22.00;49.50;;;;;;4918508;29;20028;-62
2021/10/28 17:38:17;;;;;;;2.78;1.05;;;22.00;49.50;;;;;;4919542;29;20488;-62
2021/10/28 17:40:42;;;;;;;2.67;1.00;;;22.00;49.40;;;;;;4919669;29;20068;-62
2021/10/28 17:43:10;;;;;;;3.50;1.38;;;22.00;49.40;;;;;;4919685;29;20020;-61
2021/10/28 17:45:37;;;;;;;3.25;1.02;;;21.90;49.40;;;;;;4919719;29;20032;-62
2021/10/28 17:48:04;;;;;;;2.72;1.10;;;21.90;49.50;;;;;;4918494;29;20032;-62
2021/10/28 17:50:29;;;;;;;2.35;0.98;;;21.90;49.50;;;;;;4919680;29;20102;-62
2021/10/28 17:52:55;;;;;;;2.53;0.90;;;21.90;49.40;;;;;;4919474;29;20060;-62
2021/10/28 17:55:21;;;;;;;3.53;0.88;;;21.90;49.50;;;;;;4919628;29;20094;-62
2021/10/28 17:57:50;;;;;;;1.65;0.82;;;21.90;49.50;;;;;;4919474;29;20472;-62
2021/10/28 18:00:18;;;;;;;4.43;1.45;;;21.90;49.50;;;;;;4919522;29;20025;-62
2021/10/28 18:02:44;;;;;;;5.60;1.55;;;21.90;49.40;;;;;;4919451;29;20036;-62
2021/10/28 18:05:10;;;;;;;1.52;0.77;;;21.90;49.50;;;;;;4919432;29;20035;-62
2021/10/28 18:07:36;;;;;;;2.75;1.20;;;21.90;49.50;;;;;;4919263;29;20059;-62
2021/10/28 18:10:05;;;;;;;3.92;1.08;;;21.90;49.50;;;;;;4919434;29;20476;-62
2021/10/28 18:12:34;;;;;;;2.10;1.15;;;21.90;49.50;;;;;;4919426;29;20064;-62
2021/10/28 18:15:00;;;;;;;2.28;1.05;;;21.90;49.50;;;;;;4919434;29;20087;-61
2021/10/28 18:17:26;;;;;;;1.83;0.90;;;21.90;49.50;;;;;;4917958;29;20029;-62
2021/10/28 18:19:51;;;;;;;1.98;0.85;;;21.90;49.50;;;;;;4919266;29;20420;-62
2021/10/28 18:22:17;;;;;;;3.83;1.20;;;21.90;49.50;;;;;;4919115;29;20032;-62
2021/10/28 18:24:43;;;;;;;2.13;1.02;;;21.90;49.50;;;;;;4919165;29;20039;-62
2021/10/28 18:27:09;;;;;;;2.33;1.20;;;21.90;49.50;;;;;;4919006;29;20452;-62
2021/10/28 18:29:36;;;;;;;2.03;0.90;;;21.80;49.50;;;;;;4918953;29;20034;-62
2021/10/28 18:32:03;;;;;;;3.05;1.17;;;21.90;49.50;;;;;;4918943;29;20032;-61
2021/10/28 18:34:29;;;;;;;1.85;0.82;;;21.90;49.50;;;;;;4917555;29;20516;-62
2021/10/28 18:36:55;;;;;;;3.65;0.98;;;21.90;49.50;;;;;;4919159;29;20111;-62
2021/10/28 18:39:21;;;;;;;2.80;1.17;;;21.90;49.50;;;;;;4918372;29;20080;-62
2021/10/28 18:41:47;;;;;;;2.25;0.95;;;21.90;49.50;;;;;;4918770;29;20063;-61
2021/10/28 18:44:14;;;;;;;2.53;1.08;;;21.90;49.50;;;;;;4918588;29;20036;-62
2021/10/28 18:46:41;;;;;;;2.35;1.17;;;21.90;49.50;;;;;;4918116;29;20078;-62
2021/10/28 18:49:08;;;;;;;2.22;0.90;;;21.80;49.50;;;;;;4918622;29;20025;-62
2021/10/28 18:51:36;;;;;;;2.08;1.10;;;21.90;49.50;;;;;;4918422;29;20031;-62
2021/10/28 18:54:02;;;;;;;3.25;1.20;;;21.90;49.50;;;;;;4918711;29;20043;-62
2021/10/28 18:56:28;;;;;;;2.95;0.93;;;21.80;49.50;;;;;;4918722;29;20028;-62
2021/10/28 18:58:54;;;;;;;2.75;1.30;;;21.90;49.40;;;;;;4918422;29;20023;-62
2021/10/28 19:01:20;;;;;;;2.95;1.17;;;21.80;49.50;;;;;;4918531;29;20036;-62
2021/10/28 19:03:47;;;;;;;3.22;1.20;;;21.90;49.50;;;;;;4918306;29;20028;-61
2021/10/28 19:06:14;;;;;;;1.85;0.90;;;21.80;49.40;;;;;;4918248;29;20127;-62
2021/10/28 19:08:40;;;;;;;4.20;0.93;;;21.90;49.40;;;;;;4918335;29;20059;-62
2021/10/28 19:11:08;;;;;;;3.42;1.35;;;21.80;49.50;;;;;;4918312;29;20036;-62
2021/10/28 19:13:34;;;;;;;3.17;1.30;;;21.80;49.50;;;;;;4918306;29;20024;-62
2021/10/28 19:16:00;;;;;;;4.35;1.67;;;21.80;49.50;;;;;;4918326;29;20039;-62
2021/10/28 19:18:26;;;;;;;3.25;1.33;;;21.80;49.50;;;;;;4918171;29;20395;-62
2021/10/28 19:20:51;;;;;;;2.28;1.10;;;21.80;49.40;;;;;;4918027;29;20032;-62
2021/10/28 19:23:17;;;;;;;3.17;1.30;;;21.80;49.40;;;;;;4918055;29;20043;-62
2021/10/28 19:25:43;;;;;;;3.40;1.23;;;21.80;49.40;;;;;;4917845;29;20456;-61
2021/10/28 19:28:09;;;;;;;3.05;1.30;;;21.80;49.40;;;;;;4917856;29;20543;-61
2021/10/28 19:30:41;;;;;;;2.75;1.10;;;21.80;49.40;;;;;;4918253;29;20054;-61
2021/10/28 19:33:19;;;;;;;2.25;1.00;;;21.80;49.40;;;;;;4917766;29;20032;-62
2021/10/28 19:36:01;;;;;;;2.42;1.00;;;21.80;49.40;;;;;;4917775;29;20539;-62
2021/10/28 19:38:50;;;;;;;2.50;1.23;;;21.80;49.40;;;;;;4917629;29;20044;-62
2021/10/28 19:46:26;;;;;;;3.63;1.15;;;21.80;49.50;;;;;;4930250;29;20035;-62
2021/10/28 19:48:51;;;;;;;2.80;1.15;;;21.80;49.50;;;;;;4917510;29;20036;-61
2021/10/28 19:51:17;;;;;;;4.15;1.17;;;21.80;49.40;;;;;;4917520;29;20055;-62
2021/10/28 19:53:46;;;;;;;3.28;1.33;;;21.80;49.40;;;;;;4917731;29;20024;-62
2021/10/28 19:56:14;;;;;;;2.97;1.40;;;21.80;49.40;;;;;;4917485;29;20036;-62
2021/10/28 19:58:45;;;;;;;3.25;1.45;;;21.80;49.40;;;;;;4916945;29;20033;-62
2021/10/28 20:01:39;;;;;;;4.18;1.20;;;21.80;49.40;;;;;;4917651;29;20420;-62
2021/10/28 20:14:56;;;;;;;3.92;1.60;;;21.80;49.40;;;;;;4917264;29;20074;-62
2021/10/28 20:20:13;;;;;;;3.47;1.23;;;21.80;49.30;;;;;;4917304;29;20080;-62
2021/10/28 20:22:42;;;;;;;3.65;1.27;;;21.80;49.40;;;;;;4917488;29;20032;-62
2021/10/28 20:25:12;;;;;;;2.40;1.13;;;21.70;49.40;;;;;;4917060;29;20127;-62
2021/10/28 20:27:40;;;;;;;4.15;1.52;;;21.70;49.30;;;;;;4916730;29;20032;-62
2021/10/28 20:30:06;;;;;;;4.32;1.30;;;21.70;49.40;;;;;;4916970;29;20460;-62
2021/10/28 20:32:32;;;;;;;4.03;1.30;;;21.70;49.40;;;;;;4917170;29;20384;-62
2021/10/28 20:37:47;;;;;;;2.75;1.20;;;21.70;49.50;;;;;;4917012;29;20059;-62
2021/10/28 20:40:13;;;;;;;3.40;1.48;;;21.70;49.40;;;;;;4916933;29;20070;-62
2021/10/28 20:42:46;;;;;;;4.55;1.85;;;21.60;49.50;;;;;;4917134;29;20052;-62
2021/10/28 20:45:21;;;;;;;3.08;1.60;;;21.60;49.50;;;;;;4917007;29;20510;-62
2021/10/28 20:47:47;;;;;;;3.25;1.40;;;21.60;49.40;;;;;;4916873;29;20048;-62
2021/10/28 20:50:14;;;;;;;3.65;1.55;;;21.60;49.50;;;;;;4916972;29;20103;-62
2021/10/28 20:52:41;;;;;;;2.45;1.20;;;21.60;49.40;;;;;;4916576;29;20107;-62
2021/10/28 20:55:07;;;;;;;4.00;1.67;;;21.60;49.50;;;;;;4916682;29;20024;-62
2021/10/28 20:57:35;;;;;;;2.67;1.27;;;21.50;49.50;;;;;;4931170;29;20391;-62
2021/10/28 21:00:04;;;;;;;3.47;1.60;;;21.60;49.50;;;;;;4916787;29;20109;-62
2021/10/28 21:02:30;;;;;;;3.30;1.33;;;21.50;49.50;;;;;;4916657;29;20105;-62
2021/10/28 21:04:56;;;;;;;2.63;1.30;;;21.60;49.50;;;;;;4916560;29;20066;-62
2021/10/28 21:07:22;;;;;;;3.85;1.45;;;21.60;49.50;;;;;;4916733;29;20040;-62
2021/10/28 21:09:48;;;;;;;2.80;1.40;;;21.50;49.50;;;;;;4919087;29;20039;-61
2021/10/28 21:12:13;;;;;;;4.50;1.60;;;21.50;49.50;;;;;;4920388;29;20480;-61
2021/10/28 21:14:39;;;;;;;3.20;1.23;;;21.50;49.50;;;;;;4920376;29;20036;-61
2021/10/28 21:17:04;;;;;;;3.40;1.40;;;21.50;49.40;;;;;;4920409;29;20036;-61
2021/10/28 21:19:30;;;;;;;2.47;1.13;;;21.50;49.40;;;;;;4920554;29;20020;-61
2021/10/28 21:21:55;;;;;;;2.63;1.35;;;21.50;49.50;;;;;;4920212;29;20032;-61
2021/10/28 21:24:21;;;;;;;3.30;1.40;;;21.50;49.40;;;;;;4920118;29;20464;-62
2021/10/28 21:26:47;;;;;;;3.65;1.65;;;21.50;49.40;;;;;;4920143;29;20040;-62
2021/10/28 21:29:12;;;;;;;3.50;1.50;;;21.50;49.50;;;;;;4920144;29;20031;-61
2021/10/28 21:31:38;;;;;;;3.55;1.58;;;21.50;49.40;;;;;;4920158;29;20463;-61
2021/10/28 21:34:04;;;;;;;4.15;1.58;;;21.50;49.40;;;;;;4920084;29;20024;-61
2021/10/28 21:36:30;;;;;;;2.72;1.27;;;21.50;49.40;;;;;;4919948;29;20028;-61
2021/10/28 21:38:55;;;;;;;3.83;1.52;;;21.50;49.40;;;;;;4934398;29;20052;-61